Time;durP1;ratioP1;P1;durP2;ratioP2;P2;SDS_P1;SDS_P2;PMS_P1;PMS_P2;Temp;Humidity;BMP_temperature;BMP_pressure;BME280_temperature;BME280_humidity;BME280_pressure;Samples;Min_cycle;Max_cycle;Signal;HPM_P1;HPM_P2
2021/08/18 00:00:01;;;;;;;8.07;1.73;;;;;;;;;;4991870;28;20034;-58
2021/08/18 00:02:26;;;;;;;5.10;1.88;;;;;;;;;;4998820;28;20034;-58
2021/08/18 00:04:53;;;;;;;8.43;2.13;;;;;;;;;;4975180;28;20412;-58
2021/08/18 00:07:19;;;;;;;7.20;2.40;;;;;;;;;;4978793;28;20042;-58
2021/08/18 00:09:46;;;;;;;10.82;2.40;;;;;;;;;;4991684;28;20216;-58
2021/08/18 00:12:12;;;;;;;8.60;3.08;;;;;;;;;;4991137;28;20045;-58
2021/08/18 00:14:37;;;;;;;8.02;2.42;;;;;;;;;;4996182;28;20485;-58
2021/08/18 00:17:03;;;;;;;7.35;2.30;;;;;;;;;;5005688;28;20096;-58
2021/08/18 00:19:28;;;;;;;10.40;2.40;;;;;;;;;;4990200;28;20038;-59
2021/08/18 00:21:54;;;;;;;9.15;3.00;;;;;;;;;;4998949;28;20471;-59
2021/08/18 00:24:19;;;;;;;7.93;2.80;;;;;;;;;;4987741;28;20508;-58
2021/08/18 00:26:45;;;;;;;7.15;2.05;;;;;;;;;;4998267;28;20065;-58
2021/08/18 00:29:11;;;;;;;6.30;2.17;;;;;;;;;;4997730;28;20038;-58
2021/08/18 00:31:37;;;;;;;8.30;2.47;;;;;;;;;;4974565;28;20129;-59
2021/08/18 00:34:03;;;;;;;13.98;2.50;;;;;;;;;;4986283;28;20138;-58
2021/08/18 00:36:30;;;;;;;5.93;1.80;;;;;;;;;;4994870;28;20454;-58
2021/08/18 00:38:55;;;;;;;9.02;1.95;;;;;;;;;;4998940;28;20026;-59
2021/08/18 00:41:21;;;;;;;7.85;1.30;;;;;;;;;;4997590;28;20559;-58
2021/08/18 00:43:51;;;;;;;3.83;1.52;;;;;;;;;;4998433;28;20532;-58
2021/08/18 00:46:17;;;;;;;7.78;1.40;;;;;;;;;;4994461;28;20513;-59
2021/08/18 00:48:46;;;;;;;4.05;1.52;;;;;;;;;;4997976;28;20088;-59
2021/08/18 00:51:15;;;;;;;6.05;1.27;;;;;;;;;;4999624;28;20089;-58
2021/08/18 00:53:40;;;;;;;2.63;1.38;;;;;;;;;;5001463;28;20543;-58
2021/08/18 00:56:10;;;;;;;8.23;1.80;;;;;;;;;;4989331;28;20041;-58
2021/08/18 00:58:36;;;;;;;15.65;2.17;;;;;;;;;;5001145;28;20042;-58
2021/08/18 01:01:02;;;;;;;5.30;1.60;;;;;;;;;;4989404;28;20054;-58
2021/08/18 01:03:29;;;;;;;2.75;1.40;;;;;;;;;;4980464;28;20296;-58
2021/08/18 01:05:55;;;;;;;4.80;1.50;;;;;;;;;;4978292;28;20033;-59
2021/08/18 01:08:22;;;;;;;5.30;1.83;;;;;;;;;;4977626;28;20039;-58
2021/08/18 01:10:48;;;;;;;6.55;1.92;;;;;;;;;;4982120;28;20042;-59
2021/08/18 01:13:14;;;;;;;5.65;1.80;;;;;;;;;;4983994;28;20469;-59
2021/08/18 01:15:39;;;;;;;5.55;1.77;;;;;;;;;;4977984;28;20113;-59
2021/08/18 01:18:06;;;;;;;7.95;2.00;;;;;;;;;;4978051;28;20042;-59
2021/08/18 01:20:39;;;;;;;5.97;2.35;;;;;;;;;;4985196;28;20034;-59
2021/08/18 01:23:06;;;;;;;6.30;1.40;;;;;;;;;;4977103;28;20069;-59
2021/08/18 01:25:33;;;;;;;2.72;1.40;;;;;;;;;;4979953;28;20046;-58
2021/08/18 01:28:01;;;;;;;4.95;1.50;;;;;;;;;;4978332;28;20038;-58
2021/08/18 01:30:28;;;;;;;2.33;0.98;;;;;;;;;;4984341;28;20034;-58
2021/08/18 01:32:55;;;;;;;4.07;1.10;;;;;;;;;;4985528;28;20061;-58
2021/08/18 01:35:36;;;;;;;7.13;1.40;;;;;;;;;;4984572;28;20026;-58
2021/08/18 01:38:05;;;;;;;1.48;0.88;;;;;;;;;;4971636;28;20061;-59
2021/08/18 01:40:32;;;;;;;7.38;1.35;;;;;;;;;;4979606;28;20026;-58
2021/08/18 01:42:57;;;;;;;5.47;1.15;;;;;;;;;;4982951;28;20034;-58
2021/08/18 01:45:32;;;;;;;7.18;1.33;;;;;;;;;;4983399;28;20042;-58
2021/08/18 01:48:04;;;;;;;7.70;1.10;;;;;;;;;;4973247;28;20033;-59
2021/08/18 01:50:30;;;;;;;;;;;;;;;;;;4978718;28;20065;-58
2021/08/18 01:52:55;;;;;;;4.85;1.00;;;;;;;;;;4968968;28;19996;-58
2021/08/18 01:55:25;;;;;;;3.67;1.08;;;;;;;;;;4978374;28;20033;-58
2021/08/18 01:57:52;;;;;;;3.83;1.02;;;;;;;;;;4974250;28;20047;-58
2021/08/18 02:00:17;;;;;;;1.73;0.90;;;;;;;;;;4984183;28;20049;-58
2021/08/18 02:02:44;;;;;;;1.88;0.77;;;;;;;;;;4984851;28;20035;-58
2021/08/18 02:05:10;;;;;;;5.95;0.80;;;;;;;;;;4978289;28;20035;-58
2021/08/18 02:07:36;;;;;;;3.83;1.10;;;;;;;;;;4972370;28;20533;-58
2021/08/18 02:10:07;;;;;;;3.53;1.00;;;;;;;;;;4981604;28;20376;-59
2021/08/18 02:12:35;;;;;;;7.60;1.55;;;;;;;;;;4981014;28;20216;-58
2021/08/18 02:15:01;;;;;;;3.75;1.65;;;;;;;;;;4978227;28;20034;-58
2021/08/18 02:17:27;;;;;;;5.00;1.30;;;;;;;;;;4979539;28;20034;-59
2021/08/18 02:19:52;;;;;;;4.28;1.48;;;;;;;;;;4980253;28;20042;-59
2021/08/18 02:22:18;;;;;;;5.85;1.40;;;;;;;;;;4975776;28;20031;-58
2021/08/18 02:24:43;;;;;;;3.58;1.30;;;;;;;;;;4963394;28;20156;-58
2021/08/18 02:27:09;;;;;;;6.53;1.80;;;;;;;;;;4981918;28;20066;-58
2021/08/18 02:29:34;;;;;;;4.30;1.50;;;;;;;;;;4980262;28;20055;-59
2021/08/18 02:32:00;;;;;;;5.25;1.48;;;;;;;;;;4979383;28;20489;-58
2021/08/18 02:34:25;;;;;;;1.83;1.13;;;;;;;;;;4960301;28;20501;-59
2021/08/18 02:36:51;;;;;;;2.75;1.63;;;;;;;;;;4979718;28;20523;-59
2021/08/18 02:39:16;;;;;;;7.18;1.60;;;;;;;;;;4981188;28;20441;-58
2021/08/18 02:41:42;;;;;;;5.93;1.30;;;;;;;;;;4978614;28;20041;-58
2021/08/18 02:44:07;;;;;;;4.05;1.75;;;;;;;;;;4974686;28;20030;-59
2021/08/18 02:46:33;;;;;;;5.95;1.80;;;;;;;;;;4979630;28;20030;-58
2021/08/18 02:48:58;;;;;;;5.25;1.30;;;;;;;;;;4981920;28;20378;-59
2021/08/18 02:51:24;;;;;;;5.47;1.55;;;;;;;;;;4957389;28;20066;-59
2021/08/18 02:53:49;;;;;;;8.13;1.20;;;;;;;;;;4982264;28;20030;-58
2021/08/18 02:56:15;;;;;;;2.75;1.02;;;;;;;;;;4964996;28;20041;-57
2021/08/18 02:58:40;;;;;;;3.72;1.40;;;;;;;;;;4949570;28;20035;-58
2021/08/18 03:01:06;;;;;;;2.03;1.20;;;;;;;;;;4975134;28;20045;-60
2021/08/18 03:03:31;;;;;;;6.78;1.65;;;;;;;;;;4975244;28;20061;-58
2021/08/18 03:05:57;;;;;;;2.28;1.67;;;;;;;;;;4977104;28;20034;-59
2021/08/18 03:08:22;;;;;;;5.22;1.40;;;;;;;;;;4979677;28;20034;-58
2021/08/18 03:10:48;;;;;;;5.78;1.17;;;;;;;;;;4982795;28;20041;-58
2021/08/18 03:13:13;;;;;;;3.92;1.80;;;;;;;;;;4971432;28;20579;-59
2021/08/18 03:15:39;;;;;;;6.55;2.30;;;;;;;;;;4961086;28;20030;-58
2021/08/18 03:18:04;;;;;;;5.45;2.72;;;;;;;;;;4977033;28;20517;-58
2021/08/18 03:20:30;;;;;;;11.02;1.95;;;;;;;;;;4977876;28;20401;-58
2021/08/18 03:22:55;;;;;;;4.82;1.50;;;;;;;;;;4974704;28;20038;-58
2021/08/18 03:25:21;;;;;;;8.23;1.67;;;;;;;;;;4973891;28;20105;-58
2021/08/18 03:27:46;;;;;;;5.97;1.45;;;;;;;;;;4978641;28;20030;-58
2021/08/18 03:30:12;;;;;;;7.55;1.60;;;;;;;;;;4979529;28;20026;-58
2021/08/18 03:32:38;;;;;;;6.20;1.33;;;;;;;;;;4994354;28;20046;-58
2021/08/18 03:35:05;;;;;;;4.78;1.17;;;;;;;;;;4982630;28;20402;-58
2021/08/18 03:37:30;;;;;;;6.85;1.25;;;;;;;;;;4983077;28;20042;-58
2021/08/18 03:39:56;;;;;;;3.72;1.20;;;;;;;;;;4967184;28;20043;-59
2021/08/18 03:42:22;;;;;;;3.55;0.90;;;;;;;;;;4985345;28;20662;-58
2021/08/18 03:44:47;;;;;;;5.18;1.35;;;;;;;;;;4976965;28;20053;-59
2021/08/18 03:47:13;;;;;;;3.67;1.20;;;;;;;;;;4978036;28;20058;-58
2021/08/18 03:49:39;;;;;;;5.90;1.08;;;;;;;;;;4980960;28;20124;-59
2021/08/18 03:52:06;;;;;;;6.30;1.15;;;;;;;;;;4986563;28;20117;-58
2021/08/18 03:54:32;;;;;;;4.28;0.90;;;;;;;;;;4983812;28;20492;-58
2021/08/18 03:56:58;;;;;;;8.90;1.48;;;;;;;;;;4977085;28;20129;-59
2021/08/18 03:59:24;;;;;;;4.07;1.60;;;;;;;;;;4976394;28;20129;-58
2021/08/18 04:01:49;;;;;;;4.10;1.00;;;;;;;;;;4965595;28;20042;-58
2021/08/18 04:04:15;;;;;;;3.83;1.20;;;;;;;;;;4976203;28;20485;-59
2021/08/18 04:06:41;;;;;;;7.65;1.73;;;;;;;;;;4976541;28;20030;-58
2021/08/18 04:09:07;;;;;;;2.42;1.02;;;;;;;;;;4985487;28;20049;-58
2021/08/18 04:11:32;;;;;;;2.92;1.25;;;;;;;;;;4981478;28;20034;-58
2021/08/18 04:13:58;;;;;;;6.35;1.67;;;;;;;;;;4968068;28;20039;-59
2021/08/18 04:16:23;;;;;;;6.43;1.75;;;;;;;;;;4969501;28;20109;-58
2021/08/18 04:18:49;;;;;;;8.82;1.70;;;;;;;;;;4982553;28;20516;-59
2021/08/18 04:21:14;;;;;;;8.48;1.52;;;;;;;;;;4969702;28;20105;-59
2021/08/18 04:23:40;;;;;;;9.57;2.85;;;;;;;;;;4954897;28;20049;-58
2021/08/18 04:26:06;;;;;;;4.57;2.00;;;;;;;;;;4984736;28;20513;-59
2021/08/18 04:28:31;;;;;;;6.93;1.98;;;;;;;;;;4980026;28;20553;-59
2021/08/18 04:30:57;;;;;;;5.45;2.50;;;;;;;;;;4974114;28;20030;-59
2021/08/18 04:33:22;;;;;;;5.78;2.17;;;;;;;;;;4982143;28;20034;-59
2021/08/18 04:35:48;;;;;;;5.78;2.25;;;;;;;;;;4981263;28;20033;-58
2021/08/18 04:38:13;;;;;;;5.65;2.35;;;;;;;;;;4969640;28;20124;-58
2021/08/18 04:40:39;;;;;;;7.88;2.00;;;;;;;;;;4987251;28;20049;-59
2021/08/18 04:43:04;;;;;;;6.80;2.22;;;;;;;;;;4969776;28;20038;-58
2021/08/18 04:45:30;;;;;;;8.30;2.25;;;;;;;;;;4977520;28;20042;-59
2021/08/18 04:47:56;;;;;;;15.27;1.88;;;;;;;;;;4973769;28;20390;-58
2021/08/18 04:50:21;;;;;;;5.28;1.70;;;;;;;;;;4974588;28;20027;-58
2021/08/18 04:52:47;;;;;;;8.32;1.88;;;;;;;;;;4985305;28;20062;-58
2021/08/18 04:55:14;;;;;;;5.65;2.00;;;;;;;;;;4980217;28;20026;-59
2021/08/18 04:57:40;;;;;;;5.80;1.98;;;;;;;;;;4979516;28;20174;-59
2021/08/18 05:00:07;;;;;;;5.82;2.70;;;;;;;;;;4979887;28;20125;-59
2021/08/18 05:02:34;;;;;;;8.68;2.42;;;;;;;;;;4977755;28;20034;-59
2021/08/18 05:05:01;;;;;;;8.38;2.10;;;;;;;;;;4984973;28;20173;-59
2021/08/18 05:07:26;;;;;;;7.82;2.38;;;;;;;;;;4965529;28;20045;-59
2021/08/18 05:09:52;;;;;;;9.88;2.45;;;;;;;;;;4972343;28;20035;-59
2021/08/18 05:12:17;;;;;;;9.60;1.38;;;;;;;;;;4980414;28;20041;-59
2021/08/18 05:14:43;;;;;;;6.25;1.95;;;;;;;;;;4986627;28;20493;-59
2021/08/18 05:17:08;;;;;;;7.53;2.30;;;;;;;;;;4982376;28;20034;-59
2021/08/18 05:19:34;;;;;;;8.25;2.63;;;;;;;;;;4983018;28;20398;-59
2021/08/18 05:22:00;;;;;;;13.95;2.30;;;;;;;;;;4980102;28;20548;-59
2021/08/18 05:24:25;;;;;;;6.82;2.08;;;;;;;;;;4978110;28;20422;-59
2021/08/18 05:26:51;;;;;;;11.93;2.30;;;;;;;;;;4979582;28;20528;-59
2021/08/18 05:29:16;;;;;;;12.15;3.00;;;;;;;;;;4971766;28;20516;-58
2021/08/18 05:31:42;;;;;;;5.38;2.17;;;;;;;;;;4974170;28;20035;-59
2021/08/18 05:34:07;;;;;;;11.00;2.55;;;;;;;;;;4981710;28;20030;-59
2021/08/18 05:36:33;;;;;;;10.27;3.00;;;;;;;;;;4976563;28;20066;-59
2021/08/18 05:38:58;;;;;;;6.28;2.38;;;;;;;;;;4969500;28;20464;-59
2021/08/18 05:41:24;;;;;;;8.60;2.75;;;;;;;;;;4937342;28;20397;-59
2021/08/18 05:43:51;;;;;;;9.15;2.97;;;;;;;;;;4980668;28;20402;-59
2021/08/18 05:46:17;;;;;;;8.75;2.97;;;;;;;;;;4976357;28;20064;-59
2021/08/18 05:48:42;;;;;;;9.43;3.20;;;;;;;;;;4965077;28;20035;-59
2021/08/18 05:51:08;;;;;;;11.50;3.42;;;;;;;;;;4976522;28;20440;-59
2021/08/18 05:53:34;;;;;;;8.35;3.15;;;;;;;;;;4984297;28;20042;-59
2021/08/18 05:56:00;;;;;;;8.95;3.65;;;;;;;;;;4981135;28;20536;-59
2021/08/18 05:58:25;;;;;;;10.82;3.90;;;;;;;;;;4965786;28;20058;-59
2021/08/18 06:00:51;;;;;;;15.13;4.75;;;;;;;;;;4972850;28;20053;-59
2021/08/18 06:03:16;;;;;;;13.55;4.63;;;;;;;;;;4996937;28;20033;-58
2021/08/18 06:05:42;;;;;;;9.80;3.90;;;;;;;;;;4974652;28;20026;-58
2021/08/18 06:08:07;;;;;;;17.10;4.63;;;;;;;;;;4950828;28;20089;-58
2021/08/18 06:10:34;;;;;;;15.00;4.80;;;;;;;;;;4985100;28;20494;-59
2021/08/18 06:13:01;;;;;;;11.73;4.28;;;;;;;;;;4978175;28;20034;-58
2021/08/18 06:15:31;;;;;;;14.48;3.85;;;;;;;;;;4974349;28;20485;-59
2021/08/18 06:17:56;;;;;;;14.05;4.20;;;;;;;;;;4960244;28;20129;-59
2021/08/18 06:20:23;;;;;;;11.15;4.13;;;;;;;;;;4986143;28;20119;-59
2021/08/18 06:22:49;;;;;;;12.02;3.55;;;;;;;;;;4984170;28;20038;-59
2021/08/18 06:25:15;;;;;;;11.27;3.92;;;;;;;;;;4974667;28;20085;-59
2021/08/18 06:27:41;;;;;;;12.00;3.97;;;;;;;;;;4973565;28;20038;-60
2021/08/18 06:30:08;;;;;;;10.85;3.60;;;;;;;;;;4976867;28;20038;-59
2021/08/18 06:32:34;;;;;;;14.85;3.95;;;;;;;;;;4967426;28;20046;-59
2021/08/18 06:34:59;;;;;;;11.57;3.60;;;;;;;;;;4974623;28;20472;-59
2021/08/18 06:37:25;;;;;;;9.23;3.08;;;;;;;;;;4943181;28;20030;-59
2021/08/18 06:39:50;;;;;;;10.80;4.03;;;;;;;;;;4974693;28;20022;-59
2021/08/18 06:42:16;;;;;;;15.45;4.10;;;;;;;;;;4947565;28;20062;-59
2021/08/18 06:44:42;;;;;;;19.17;4.07;;;;;;;;;;4980230;28;20214;-59
2021/08/18 06:47:08;;;;;;;11.38;3.30;;;;;;;;;;4977298;28;20077;-59
2021/08/18 06:49:34;;;;;;;13.38;4.78;;;;;;;;;;4979409;28;20309;-60
2021/08/18 06:52:00;;;;;;;15.07;3.13;;;;;;;;;;4976825;28;20285;-59
2021/08/18 06:54:26;;;;;;;11.05;3.90;;;;;;;;;;4981669;28;20303;-59
2021/08/18 06:56:52;;;;;;;9.30;2.83;;;;;;;;;;4981822;28;20437;-59
2021/08/18 06:59:18;;;;;;;8.27;3.15;;;;;;;;;;4983925;28;20077;-59
2021/08/18 07:01:44;;;;;;;13.95;3.95;;;;;;;;;;4975893;28;20026;-59
2021/08/18 07:04:10;;;;;;;10.18;3.67;;;;;;;;;;4975778;28;20490;-59
2021/08/18 07:06:35;;;;;;;16.45;4.75;;;;;;;;;;4980075;28;20035;-59
2021/08/18 07:09:01;;;;;;;15.57;4.20;;;;;;;;;;4969050;28;20030;-59
2021/08/18 07:11:28;;;;;;;10.32;3.15;;;;;;;;;;4981994;28;20026;-59
2021/08/18 07:14:00;;;;;;;11.57;3.63;;;;;;;;;;4991623;28;20104;-59
2021/08/18 07:16:27;;;;;;;12.20;3.40;;;;;;;;;;4977026;28;20552;-60
2021/08/18 07:18:54;;;;;;;16.75;3.13;;;;;;;;;;4983081;28;20449;-59
2021/08/18 07:21:20;;;;;;;13.40;3.15;;;;;;;;;;4986198;28;20507;-59
2021/08/18 07:23:50;;;;;;;11.07;3.55;;;;;;;;;;4965793;28;20480;-59
2021/08/18 07:26:16;;;;;;;13.48;3.20;;;;;;;;;;4981054;28;20122;-59
2021/08/18 07:28:42;;;;;;;19.33;3.55;;;;;;;;;;4980031;28;20061;-59
2021/08/18 07:31:09;;;;;;;7.68;3.28;;;;;;;;;;4984551;28;20030;-58
2021/08/18 07:33:34;;;;;;;11.20;2.65;;;;;;;;;;4984996;28;20117;-59
2021/08/18 07:36:00;;;;;;;12.75;2.50;;;;;;;;;;4981437;28;20473;-59
2021/08/18 07:38:25;;;;;;;19.40;2.50;;;;;;;;;;4980438;28;20116;-58
2021/08/18 07:40:51;;;;;;;9.05;2.80;;;;;;;;;;4968690;28;20089;-59
2021/08/18 07:43:16;;;;;;;9.60;2.78;;;;;;;;;;4981046;28;20093;-58
2021/08/18 07:45:42;;;;;;;9.73;2.72;;;;;;;;;;4959224;28;20039;-58
2021/08/18 07:48:08;;;;;;;16.65;3.15;;;;;;;;;;4981468;28;20386;-58
2021/08/18 07:50:33;;;;;;;13.73;2.65;;;;;;;;;;4986426;28;20064;-59
2021/08/18 07:52:59;;;;;;;14.95;2.78;;;;;;;;;;4976619;28;20034;-58
2021/08/18 07:55:24;;;;;;;6.75;2.42;;;;;;;;;;4981340;28;20081;-58
2021/08/18 07:57:50;;;;;;;4.88;2.20;;;;;;;;;;4981205;28;20536;-58
2021/08/18 08:00:16;;;;;;;7.43;2.35;;;;;;;;;;4977614;28;20036;-59
2021/08/18 08:02:46;;;;;;;7.18;2.67;;;;;;;;;;4984773;28;20031;-59
2021/08/18 08:05:13;;;;;;;5.97;2.72;;;;;;;;;;4983871;28;20034;-59
2021/08/18 08:07:38;;;;;;;5.35;2.10;;;;;;;;;;4980882;28;20497;-59
2021/08/18 08:10:06;;;;;;;7.78;3.15;;;;;;;;;;4966970;28;20070;-59
2021/08/18 08:12:32;;;;;;;7.00;2.75;;;;;;;;;;4973620;28;20039;-59
2021/08/18 08:14:57;;;;;;;13.32;3.00;;;;;;;;;;4979074;28;20042;-59
2021/08/18 08:17:23;;;;;;;7.68;2.70;;;;;;;;;;4964953;28;20074;-59
2021/08/18 08:19:49;;;;;;;7.20;3.05;;;;;;;;;;4975175;28;20292;-59
2021/08/18 08:22:14;;;;;;;6.18;2.33;;;;;;;;;;4998576;28;20034;-59
2021/08/18 08:24:40;;;;;;;11.82;2.72;;;;;;;;;;4975197;28;20046;-59
2021/08/18 08:27:06;;;;;;;4.72;2.40;;;;;;;;;;4981076;28;20031;-59
2021/08/18 08:29:32;;;;;;;10.52;2.97;;;;;;;;;;4982934;28;20529;-59
2021/08/18 08:31:57;;;;;;;9.32;2.42;;;;;;;;;;4984132;28;20041;-59
2021/08/18 08:34:23;;;;;;;8.38;3.05;;;;;;;;;;4973394;28;20062;-60
2021/08/18 08:36:49;;;;;;;8.40;2.92;;;;;;;;;;4955989;28;20498;-60
2021/08/18 08:39:14;;;;;;;8.82;2.70;;;;;;;;;;4980159;28;20087;-60
2021/08/18 08:41:43;;;;;;;22.58;4.53;;;;;;;;;;4969178;28;20540;-59
2021/08/18 08:44:20;;;;;;;16.35;3.25;;;;;;;;;;4974028;28;20490;-60
2021/08/18 08:46:49;;;;;;;27.42;3.20;;;;;;;;;;4969345;28;20034;-60
2021/08/18 08:49:16;;;;;;;5.47;2.15;;;;;;;;;;4981233;28;20038;-60
2021/08/18 08:51:47;;;;;;;14.10;2.67;;;;;;;;;;4969818;28;20030;-60
2021/08/18 08:54:14;;;;;;;14.57;2.47;;;;;;;;;;4975776;28;20030;-60
2021/08/18 08:56:39;;;;;;;3.45;2.30;;;;;;;;;;4976701;28;20401;-60
2021/08/18 08:59:05;;;;;;;5.32;1.88;;;;;;;;;;4977968;28;20045;-60
2021/08/18 09:02:02;;;;;;;5.13;1.85;;;;;;;;;;4972105;28;20078;-60
2021/08/18 09:04:28;;;;;;;2.83;1.75;;;;;;;;;;4987089;28;20050;-60
2021/08/18 09:07:13;;;;;;;7.22;1.80;;;;;;;;;;4974716;28;20062;-60
2021/08/18 09:10:03;;;;;;;2.58;1.63;;;;;;;;;;4971781;28;20034;-61
2021/08/18 09:12:37;;;;;;;5.78;1.83;;;;;;;;;;4971673;28;20105;-60
2021/08/18 09:15:20;;;;;;;6.47;1.80;;;;;;;;;;4978831;28;20453;-60
2021/08/18 09:17:48;;;;;;;5.07;2.05;;;;;;;;;;4971763;28;20073;-60
2021/08/18 09:20:15;;;;;;;5.05;1.70;;;;;;;;;;4981775;28;20514;-60
2021/08/18 09:22:51;;;;;;;8.10;2.80;;;;;;;;;;4975857;28;20030;-60
2021/08/18 09:25:20;;;;;;;4.07;1.98;;;;;;;;;;4970835;28;20038;-60
2021/08/18 09:27:52;;;;;;;3.25;2.10;;;;;;;;;;4979385;28;20549;-60
2021/08/18 09:30:24;;;;;;;3.90;1.90;;;;;;;;;;4979844;28;20035;-60
2021/08/18 09:32:51;;;;;;;4.43;2.13;;;;;;;;;;4986320;28;20026;-60
2021/08/18 09:35:19;;;;;;;3.40;2.10;;;;;;;;;;4977876;28;20026;-60
2021/08/18 09:38:02;;;;;;;6.00;2.45;;;;;;;;;;4980519;28;20062;-60
2021/08/18 09:40:32;;;;;;;7.85;2.70;;;;;;;;;;4983030;28;20034;-60
2021/08/18 09:43:12;;;;;;;3.45;1.95;;;;;;;;;;4977151;28;20019;-60
2021/08/18 09:45:40;;;;;;;8.88;1.85;;;;;;;;;;4981092;28;20026;-61
2021/08/18 09:48:07;;;;;;;4.05;1.40;;;;;;;;;;4978908;28;20030;-60
2021/08/18 09:50:42;;;;;;;8.48;1.83;;;;;;;;;;4980682;28;20030;-60
2021/08/18 09:53:17;;;;;;;5.03;1.45;;;;;;;;;;4983777;28;20046;-60
2021/08/18 09:56:00;;;;;;;3.63;1.70;;;;;;;;;;4979944;28;20025;-60
2021/08/18 09:58:27;;;;;;;3.97;1.45;;;;;;;;;;4972294;28;20117;-60
2021/08/18 10:00:54;;;;;;;3.92;1.83;;;;;;;;;;4976710;28;20109;-60
2021/08/18 10:03:21;;;;;;;6.22;2.35;;;;;;;;;;4978111;28;20555;-60
2021/08/18 10:05:49;;;;;;;3.78;1.40;;;;;;;;;;4967699;28;20097;-61
2021/08/18 10:08:14;;;;;;;4.05;1.77;;;;;;;;;;4984552;28;20041;-60
2021/08/18 10:10:42;;;;;;;2.50;1.60;;;;;;;;;;4975051;28;20034;-60
2021/08/18 10:13:08;;;;;;;5.88;1.80;;;;;;;;;;4976132;28;20072;-60
2021/08/18 10:15:35;;;;;;;3.20;1.77;;;;;;;;;;4964674;28;20042;-61
2021/08/18 10:18:01;;;;;;;4.50;1.50;;;;;;;;;;4972976;28;20109;-59
2021/08/18 10:20:27;;;;;;;6.18;1.70;;;;;;;;;;4963872;28;20035;-60
2021/08/18 10:23:00;;;;;;;3.05;1.50;;;;;;;;;;4976737;28;20035;-60
2021/08/18 10:25:44;;;;;;;4.13;2.25;;;;;;;;;;4978504;28;20414;-60
2021/08/18 10:28:09;;;;;;;5.35;2.10;;;;;;;;;;4974158;28;20073;-61
2021/08/18 10:30:51;;;;;;;11.35;2.25;;;;;;;;;;4964967;28;20502;-61
2021/08/18 10:33:53;;;;;;;10.83;1.60;;;;;;;;;;4973557;28;20042;-60
2021/08/18 10:36:48;;;;;;;3.00;1.50;;;;;;;;;;4975643;28;20037;-60
2021/08/18 10:39:33;;;;;;;3.38;1.48;;;;;;;;;;4975063;28;20169;-60
2021/08/18 10:42:06;;;;;;;4.07;1.60;;;;;;;;;;4972316;28;20093;-60
2021/08/18 10:44:41;;;;;;;5.35;1.80;;;;;;;;;;4980402;28;20030;-60
2021/08/18 10:47:17;;;;;;;2.28;1.42;;;;;;;;;;4981206;28;20026;-60
2021/08/18 10:49:43;;;;;;;3.38;1.42;;;;;;;;;;4980359;28;20023;-60
2021/08/18 10:52:09;;;;;;;4.15;1.75;;;;;;;;;;4972070;28;20053;-60
2021/08/18 10:54:40;;;;;;;4.70;1.83;;;;;;;;;;4975723;28;20041;-60
2021/08/18 10:57:44;;;;;;;4.53;1.73;;;;;;;;;;4977111;28;20453;-60
2021/08/18 11:00:14;;;;;;;9.35;1.85;;;;;;;;;;4983657;28;20133;-60
2021/08/18 11:03:00;;;;;;;2.95;1.45;;;;;;;;;;4979317;28;20026;-60
2021/08/18 11:05:26;;;;;;;3.05;1.60;;;;;;;;;;4976076;28;20034;-60
2021/08/18 11:08:20;;;;;;;4.80;1.70;;;;;;;;;;4972295;28;20026;-60
2021/08/18 11:10:55;;;;;;;1.85;1.20;;;;;;;;;;4970321;28;20027;-60
2021/08/18 11:13:50;;;;;;;3.70;1.35;;;;;;;;;;4982570;28;20105;-60
2021/08/18 11:16:29;;;;;;;2.75;1.60;;;;;;;;;;4977943;28;20026;-61
2021/08/18 11:19:06;;;;;;;8.25;2.25;;;;;;;;;;4980057;28;20034;-60
2021/08/18 11:21:38;;;;;;;4.97;1.90;;;;;;;;;;4972517;28;20548;-60
2021/08/18 11:24:09;;;;;;;3.93;1.73;;;;;;;;;;4967075;28;20042;-60
2021/08/18 11:26:36;;;;;;;3.08;1.58;;;;;;;;;;4973258;28;20101;-60
2021/08/18 11:29:15;;;;;;;4.38;2.30;;;;;;;;;;4971949;28;20031;-60
2021/08/18 11:31:53;;;;;;;6.35;3.20;;;;;;;;;;4971345;28;20319;-60
2021/08/18 11:34:26;;;;;;;3.53;2.75;;;;;;;;;;4978247;28;20109;-60
2021/08/18 11:37:02;;;;;;;6.00;3.15;;;;;;;;;;4982735;28;20045;-60
2021/08/18 11:39:31;;;;;;;5.82;3.00;;;;;;;;;;4974564;28;20037;-60
2021/08/18 11:41:57;;;;;;;9.05;3.00;;;;;;;;;;4968948;28;20041;-60
2021/08/18 11:44:30;;;;;;;4.63;2.65;;;;;;;;;;4977243;28;20165;-59
2021/08/18 11:47:06;;;;;;;9.77;2.83;;;;;;;;;;4969940;28;20098;-60
2021/08/18 11:49:32;;;;;;;8.95;3.13;;;;;;;;;;4974094;28;20042;-59
2021/08/18 11:51:58;;;;;;;10.23;3.65;;;;;;;;;;4986305;28;20523;-60
2021/08/18 11:54:26;;;;;;;10.02;4.13;;;;;;;;;;4969985;28;20049;-59
2021/08/18 11:57:01;;;;;;;16.17;4.13;;;;;;;;;;4975395;28;20018;-59
2021/08/18 11:59:27;;;;;;;19.73;3.90;;;;;;;;;;4976504;28;20213;-60
2021/08/18 12:01:54;;;;;;;5.72;3.85;;;;;;;;;;4984118;28;20493;-60
2021/08/18 12:04:21;;;;;;;4.97;3.30;;;;;;;;;;4976478;28;20509;-60
2021/08/18 12:06:47;;;;;;;7.60;3.22;;;;;;;;;;4982496;28;20030;-60
2021/08/18 12:09:21;;;;;;;9.45;3.67;;;;;;;;;;4982955;28;20058;-59
2021/08/18 12:11:47;;;;;;;6.25;3.38;;;;;;;;;;4979142;28;20031;-59
2021/08/18 12:14:15;;;;;;;5.90;3.60;;;;;;;;;;4977942;28;20108;-60
2021/08/18 12:16:42;;;;;;;5.75;3.30;;;;;;;;;;4978943;28;20039;-60
2021/08/18 12:19:25;;;;;;;6.90;3.10;;;;;;;;;;4983378;28;20035;-59
2021/08/18 12:22:13;;;;;;;9.25;2.78;;;;;;;;;;4976381;28;20030;-59
2021/08/18 12:24:40;;;;;;;9.38;3.03;;;;;;;;;;4977592;28;20042;-59
2021/08/18 12:27:08;;;;;;;7.00;3.10;;;;;;;;;;4974126;28;20617;-61
2021/08/18 12:29:35;;;;;;;8.90;3.17;;;;;;;;;;4981896;28;20112;-60
2021/08/18 12:32:07;;;;;;;5.32;3.13;;;;;;;;;;4993706;28;20038;-61
2021/08/18 12:34:33;;;;;;;;;;;;;;;;;;4986174;28;20026;-59
2021/08/18 12:37:05;;;;;;;5.35;3.30;;;;;;;;;;4988250;28;20341;-60
2021/08/18 12:39:36;;;;;;;5.95;3.33;;;;;;;;;;4984260;28;20037;-62
2021/08/18 12:42:03;;;;;;;5.40;3.40;;;;;;;;;;4976984;28;20027;-62
2021/08/18 12:44:37;;;;;;;10.23;3.25;;;;;;;;;;4964756;28;20042;-62
2021/08/18 12:47:13;;;;;;;5.13;3.03;;;;;;;;;;4979069;28;20040;-63
2021/08/18 12:49:47;;;;;;;5.68;3.13;;;;;;;;;;4980014;28;20045;-60
2021/08/18 12:52:13;;;;;;;15.80;8.65;;;;;;;;;;4987458;28;20563;-61
2021/08/18 12:54:38;;;;;;;6.72;3.80;;;;;;;;;;4982908;28;20116;-61
2021/08/18 12:57:05;;;;;;;9.02;3.90;;;;;;;;;;4974196;28;20038;-60
2021/08/18 12:59:32;;;;;;;10.93;4.60;;;;;;;;;;4981943;28;20107;-61
2021/08/18 13:01:58;;;;;;;13.75;3.70;;;;;;;;;;4981150;28;20034;-61
2021/08/18 13:04:24;;;;;;;6.15;4.05;;;;;;;;;;4951697;28;20129;-60
2021/08/18 13:06:49;;;;;;;9.48;5.15;;;;;;;;;;4979874;28;20054;-60
2021/08/18 13:09:14;;;;;;;9.52;5.03;;;;;;;;;;4974980;28;20486;-59
2021/08/18 13:11:40;;;;;;;9.13;5.18;;;;;;;;;;4975264;28;20123;-61
2021/08/18 13:14:07;;;;;;;9.25;4.65;;;;;;;;;;4982471;28;20022;-60
2021/08/18 13:16:32;;;;;;;10.38;4.95;;;;;;;;;;4981690;28;20113;-60
2021/08/18 13:18:58;;;;;;;11.13;5.03;;;;;;;;;;4974993;28;20169;-59
2021/08/18 13:21:23;;;;;;;10.27;5.10;;;;;;;;;;4975888;28;20397;-59
2021/08/18 13:23:49;;;;;;;12.10;4.88;;;;;;;;;;4952886;28;20045;-59
2021/08/18 13:26:15;;;;;;;10.50;4.30;;;;;;;;;;4984737;28;20121;-60
2021/08/18 13:28:42;;;;;;;7.95;4.43;;;;;;;;;;4982533;28;20050;-60
2021/08/18 13:31:08;;;;;;;10.57;4.72;;;;;;;;;;4979276;28;20608;-60
2021/08/18 13:33:34;;;;;;;9.38;4.70;;;;;;;;;;4981996;28;20063;-59
2021/08/18 13:36:00;;;;;;;12.93;5.18;;;;;;;;;;4983639;28;20026;-59
2021/08/18 13:38:28;;;;;;;8.98;5.03;;;;;;;;;;4965560;28;20330;-59
2021/08/18 13:40:53;;;;;;;10.38;5.20;;;;;;;;;;4983640;28;20038;-59
2021/08/18 13:43:19;;;;;;;13.77;4.88;;;;;;;;;;4951484;28;20035;-59
2021/08/18 13:45:44;;;;;;;7.90;4.65;;;;;;;;;;4969808;28;20438;-59
2021/08/18 13:48:10;;;;;;;8.80;4.10;;;;;;;;;;4982898;28;20105;-60
2021/08/18 13:50:36;;;;;;;6.40;3.95;;;;;;;;;;4983672;28;20545;-59
2021/08/18 13:53:01;;;;;;;8.73;4.15;;;;;;;;;;4977616;28;20465;-59
2021/08/18 13:55:27;;;;;;;11.38;4.57;;;;;;;;;;4964989;28;20409;-59
2021/08/18 13:57:52;;;;;;;10.30;4.68;;;;;;;;;;4972919;28;20026;-59
2021/08/18 14:00:18;;;;;;;14.15;4.97;;;;;;;;;;4977931;28;20100;-59
2021/08/18 14:02:43;;;;;;;11.98;5.05;;;;;;;;;;4975928;28;20042;-59
2021/08/18 14:05:09;;;;;;;10.07;5.15;;;;;;;;;;4976697;28;20073;-60
2021/08/18 14:07:35;;;;;;;7.80;5.10;;;;;;;;;;4983544;28;20041;-59
2021/08/18 14:10:01;;;;;;;6.35;4.38;;;;;;;;;;4979316;28;20042;-59
2021/08/18 14:12:27;;;;;;;6.35;4.50;;;;;;;;;;4983187;28;20133;-59
2021/08/18 14:14:52;;;;;;;9.73;4.53;;;;;;;;;;4963148;28;20121;-59
2021/08/18 14:17:18;;;;;;;5.85;3.85;;;;;;;;;;4966920;28;20038;-59
2021/08/18 14:19:43;;;;;;;7.93;4.53;;;;;;;;;;4979524;28;20136;-59
2021/08/18 14:22:09;;;;;;;9.07;4.63;;;;;;;;;;4977303;28;20035;-60
2021/08/18 14:24:34;;;;;;;5.22;3.80;;;;;;;;;;4979522;28;20046;-60
2021/08/18 14:27:00;;;;;;;14.07;4.72;;;;;;;;;;4980036;28;20084;-61
2021/08/18 14:29:27;;;;;;;8.02;4.38;;;;;;;;;;4979900;28;20030;-60
2021/08/18 14:31:53;;;;;;;9.98;3.85;;;;;;;;;;4983915;28;20559;-60
2021/08/18 14:34:19;;;;;;;10.10;3.70;;;;;;;;;;4975194;28;20046;-60
2021/08/18 14:36:44;;;;;;;6.88;3.80;;;;;;;;;;4997759;28;20467;-60
2021/08/18 14:39:11;;;;;;;6.43;3.33;;;;;;;;;;4973934;28;20486;-60
2021/08/18 14:41:36;;;;;;;7.32;3.35;;;;;;;;;;4978185;28;20035;-60
2021/08/18 14:44:03;;;;;;;8.48;3.17;;;;;;;;;;4981732;28;20417;-60